Terminal Aerodrome Forecast
Issued by NWS

Home | Current Version | Previous Version | Graphics & Text | Print | Product List | Glossary On
Versions: 1 2 3 4 5 6 7 8 9 10 11 12 13 14
000
FTUS43 KOAX 312159 AAA
TAFCDR
TAF AMD
KCDR 312159Z 3122/0118 32023G34KT P6SM SCT080
     FM010000 33015KT P6SM FEW250
     FM010400 30005KT P6SM FEW250=

USA.gov is the U.S. government's official web portal to all federal, state and local government web resources and services.